sensor_id;sensor_type;location;lat;lon;timestamp;P1;durP1;ratioP1;P2;durP2;ratioP2
71080;SDS011;58740;50.672;18.690;2022-08-19T00:02:16;13.30;;;8.80;;
71080;SDS011;58740;50.672;18.690;2022-08-19T00:04:44;13.90;;;9.40;;
71080;SDS011;58740;50.672;18.690;2022-08-19T00:07:15;12.90;;;9.80;;
71080;SDS011;58740;50.672;18.690;2022-08-19T00:09:43;12.80;;;10.00;;
71080;SDS011;58740;50.672;18.690;2022-08-19T00:12:12;13.40;;;10.10;;
71080;SDS011;58740;50.672;18.690;2022-08-19T00:14:40;14.50;;;10.10;;
71080;SDS011;58740;50.672;18.690;2022-08-19T00:17:09;13.60;;;10.60;;
71080;SDS011;58740;50.672;18.690;2022-08-19T00:19:38;14.60;;;10.40;;
71080;SDS011;58740;50.672;18.690;2022-08-19T00:22:06;14.70;;;10.00;;
71080;SDS011;58740;50.672;18.690;2022-08-19T00:24:36;11.80;;;9.60;;
71080;SDS011;58740;50.672;18.690;2022-08-19T00:27:05;15.80;;;10.00;;
71080;SDS011;58740;50.672;18.690;2022-08-19T00:29:53;12.50;;;9.80;;
71080;SDS011;58740;50.672;18.690;2022-08-19T00:32:21;16.10;;;10.80;;
71080;SDS011;58740;50.672;18.690;2022-08-19T00:34:50;13.50;;;9.90;;
71080;SDS011;58740;50.672;18.690;2022-08-19T00:37:22;12.60;;;9.80;;
71080;SDS011;58740;50.672;18.690;2022-08-19T00:39:51;14.70;;;10.40;;
71080;SDS011;58740;50.672;18.690;2022-08-19T00:42:20;15.80;;;11.10;;
71080;SDS011;58740;50.672;18.690;2022-08-19T00:44:48;15.50;;;11.60;;
71080;SDS011;58740;50.672;18.690;2022-08-19T00:47:17;14.80;;;10.00;;
71080;SDS011;58740;50.672;18.690;2022-08-19T00:49:51;15.20;;;10.90;;
71080;SDS011;58740;50.672;18.690;2022-08-19T00:52:29;15.60;;;10.70;;
71080;SDS011;58740;50.672;18.690;2022-08-19T00:55:03;16.30;;;11.00;;
71080;SDS011;58740;50.672;18.690;2022-08-19T00:57:42;14.40;;;11.20;;
71080;SDS011;58740;50.672;18.690;2022-08-19T01:00:15;14.50;;;10.70;;
71080;SDS011;58740;50.672;18.690;2022-08-19T01:02:45;13.90;;;11.20;;
71080;SDS011;58740;50.672;18.690;2022-08-19T01:05:16;14.20;;;10.00;;
71080;SDS011;58740;50.672;18.690;2022-08-19T01:07:49;15.00;;;10.60;;
71080;SDS011;58740;50.672;18.690;2022-08-19T01:10:22;16.00;;;11.20;;
71080;SDS011;58740;50.672;18.690;2022-08-19T01:12:54;13.30;;;10.00;;
71080;SDS011;58740;50.672;18.690;2022-08-19T01:15:29;16.30;;;10.90;;
71080;SDS011;58740;50.672;18.690;2022-08-19T01:18:02;12.20;;;10.10;;
71080;SDS011;58740;50.672;18.690;2022-08-19T01:20:33;16.20;;;11.40;;
71080;SDS011;58740;50.672;18.690;2022-08-19T01:23:02;15.90;;;11.60;;
71080;SDS011;58740;50.672;18.690;2022-08-19T01:25:39;17.70;;;11.50;;
71080;SDS011;58740;50.672;18.690;2022-08-19T01:28:21;14.50;;;10.80;;
71080;SDS011;58740;50.672;18.690;2022-08-19T01:31:15;15.30;;;10.90;;
71080;SDS011;58740;50.672;18.690;2022-08-19T01:33:56;15.60;;;11.30;;
71080;SDS011;58740;50.672;18.690;2022-08-19T01:36:36;15.10;;;10.40;;
71080;SDS011;58740;50.672;18.690;2022-08-19T01:39:09;15.30;;;11.80;;
71080;SDS011;58740;50.672;18.690;2022-08-19T01:41:41;15.80;;;11.50;;
71080;SDS011;58740;50.672;18.690;2022-08-19T01:44:09;18.60;;;12.60;;
71080;SDS011;58740;50.672;18.690;2022-08-19T01:46:47;19.20;;;12.80;;
71080;SDS011;58740;50.672;18.690;2022-08-19T01:49:18;17.10;;;11.60;;
71080;SDS011;58740;50.672;18.690;2022-08-19T01:51:49;14.20;;;11.90;;
71080;SDS011;58740;50.672;18.690;2022-08-19T01:54:19;20.60;;;12.60;;
71080;SDS011;58740;50.672;18.690;2022-08-19T01:57:01;21.20;;;12.40;;
71080;SDS011;58740;50.672;18.690;2022-08-19T01:59:34;17.20;;;12.30;;
71080;SDS011;58740;50.672;18.690;2022-08-19T02:02:04;18.00;;;13.80;;
71080;SDS011;58740;50.672;18.690;2022-08-19T02:04:36;18.40;;;12.60;;
71080;SDS011;58740;50.672;18.690;2022-08-19T02:07:07;21.10;;;13.20;;
71080;SDS011;58740;50.672;18.690;2022-08-19T02:09:35;17.10;;;11.90;;
71080;SDS011;58740;50.672;18.690;2022-08-19T02:12:04;19.70;;;12.00;;
71080;SDS011;58740;50.672;18.690;2022-08-19T02:14:35;16.90;;;12.80;;
71080;SDS011;58740;50.672;18.690;2022-08-19T02:17:03;18.70;;;12.60;;
71080;SDS011;58740;50.672;18.690;2022-08-19T02:19:32;17.50;;;13.20;;
71080;SDS011;58740;50.672;18.690;2022-08-19T02:22:00;18.00;;;12.80;;
71080;SDS011;58740;50.672;18.690;2022-08-19T02:24:28;25.10;;;13.50;;
71080;SDS011;58740;50.672;18.690;2022-08-19T02:26:56;19.80;;;12.60;;
71080;SDS011;58740;50.672;18.690;2022-08-19T02:29:24;16.00;;;11.90;;
71080;SDS011;58740;50.672;18.690;2022-08-19T02:31:52;17.00;;;12.40;;
71080;SDS011;58740;50.672;18.690;2022-08-19T02:34:20;18.90;;;13.70;;
71080;SDS011;58740;50.672;18.690;2022-08-19T02:36:47;18.80;;;13.00;;
71080;SDS011;58740;50.672;18.690;2022-08-19T02:39:18;19.90;;;13.00;;
71080;SDS011;58740;50.672;18.690;2022-08-19T02:41:46;20.50;;;13.90;;
71080;SDS011;58740;50.672;18.690;2022-08-19T02:44:14;17.70;;;12.80;;
71080;SDS011;58740;50.672;18.690;2022-08-19T02:46:57;19.00;;;13.80;;
71080;SDS011;58740;50.672;18.690;2022-08-19T02:49:25;21.10;;;13.90;;
71080;SDS011;58740;50.672;18.690;2022-08-19T02:51:53;19.60;;;13.50;;
71080;SDS011;58740;50.672;18.690;2022-08-19T02:54:21;21.50;;;13.20;;
71080;SDS011;58740;50.672;18.690;2022-08-19T02:56:49;19.50;;;14.20;;
71080;SDS011;58740;50.672;18.690;2022-08-19T02:59:19;20.10;;;13.10;;
71080;SDS011;58740;50.672;18.690;2022-08-19T03:01:49;19.90;;;13.20;;
71080;SDS011;58740;50.672;18.690;2022-08-19T03:04:18;20.90;;;12.90;;
71080;SDS011;58740;50.672;18.690;2022-08-19T03:06:47;18.40;;;13.20;;
71080;SDS011;58740;50.672;18.690;2022-08-19T03:09:17;22.90;;;12.80;;
71080;SDS011;58740;50.672;18.690;2022-08-19T03:11:46;18.90;;;13.50;;
71080;SDS011;58740;50.672;18.690;2022-08-19T03:14:19;21.30;;;13.30;;
71080;SDS011;58740;50.672;18.690;2022-08-19T03:16:49;20.20;;;13.80;;
71080;SDS011;58740;50.672;18.690;2022-08-19T03:19:19;19.80;;;14.60;;
71080;SDS011;58740;50.672;18.690;2022-08-19T03:21:49;19.60;;;13.10;;
71080;SDS011;58740;50.672;18.690;2022-08-19T03:24:18;20.60;;;14.30;;
71080;SDS011;58740;50.672;18.690;2022-08-19T03:26:50;22.10;;;13.30;;
71080;SDS011;58740;50.672;18.690;2022-08-19T03:29:25;20.40;;;12.80;;
71080;SDS011;58740;50.672;18.690;2022-08-19T03:32:00;21.60;;;14.00;;
71080;SDS011;58740;50.672;18.690;2022-08-19T03:34:33;19.80;;;13.40;;
71080;SDS011;58740;50.672;18.690;2022-08-19T03:37:09;18.50;;;12.90;;
71080;SDS011;58740;50.672;18.690;2022-08-19T03:39:40;19.80;;;12.90;;
71080;SDS011;58740;50.672;18.690;2022-08-19T03:42:09;22.80;;;14.50;;
71080;SDS011;58740;50.672;18.690;2022-08-19T03:44:58;19.80;;;13.40;;
71080;SDS011;58740;50.672;18.690;2022-08-19T03:47:26;19.60;;;12.90;;
71080;SDS011;58740;50.672;18.690;2022-08-19T03:49:54;21.40;;;13.00;;
71080;SDS011;58740;50.672;18.690;2022-08-19T03:52:21;22.60;;;13.20;;
71080;SDS011;58740;50.672;18.690;2022-08-19T03:54:49;18.50;;;13.20;;
71080;SDS011;58740;50.672;18.690;2022-08-19T03:57:17;20.80;;;13.10;;
71080;SDS011;58740;50.672;18.690;2022-08-19T03:59:44;18.30;;;13.10;;
71080;SDS011;58740;50.672;18.690;2022-08-19T04:02:12;19.00;;;13.00;;
71080;SDS011;58740;50.672;18.690;2022-08-19T04:04:42;19.70;;;12.50;;
71080;SDS011;58740;50.672;18.690;2022-08-19T04:07:13;18.10;;;12.40;;
71080;SDS011;58740;50.672;18.690;2022-08-19T04:09:43;18.50;;;12.20;;
71080;SDS011;58740;50.672;18.690;2022-08-19T04:12:11;20.40;;;13.60;;
71080;SDS011;58740;50.672;18.690;2022-08-19T04:14:39;20.70;;;13.40;;
71080;SDS011;58740;50.672;18.690;2022-08-19T04:17:07;22.90;;;13.20;;
71080;SDS011;58740;50.672;18.690;2022-08-19T04:19:35;21.60;;;12.90;;
71080;SDS011;58740;50.672;18.690;2022-08-19T04:22:04;18.60;;;13.20;;
71080;SDS011;58740;50.672;18.690;2022-08-19T04:24:33;24.10;;;13.00;;
71080;SDS011;58740;50.672;18.690;2022-08-19T04:27:02;21.40;;;13.70;;
71080;SDS011;58740;50.672;18.690;2022-08-19T04:29:31;19.60;;;12.30;;
71080;SDS011;58740;50.672;18.690;2022-08-19T04:31:59;18.90;;;13.00;;
71080;SDS011;58740;50.672;18.690;2022-08-19T04:34:37;24.40;;;13.80;;
71080;SDS011;58740;50.672;18.690;2022-08-19T04:37:26;23.10;;;13.20;;
71080;SDS011;58740;50.672;18.690;2022-08-19T04:40:05;20.50;;;11.60;;
71080;SDS011;58740;50.672;18.690;2022-08-19T04:42:52;20.10;;;13.10;;
71080;SDS011;58740;50.672;18.690;2022-08-19T04:45:21;16.00;;;9.70;;
71080;SDS011;58740;50.672;18.690;2022-08-19T04:47:54;21.70;;;12.70;;
71080;SDS011;58740;50.672;18.690;2022-08-19T04:50:46;25.10;;;13.40;;
71080;SDS011;58740;50.672;18.690;2022-08-19T04:53:14;20.80;;;12.50;;
71080;SDS011;58740;50.672;18.690;2022-08-19T04:55:42;19.40;;;11.80;;
71080;SDS011;58740;50.672;18.690;2022-08-19T04:58:10;17.60;;;11.30;;
71080;SDS011;58740;50.672;18.690;2022-08-19T05:00:39;19.60;;;11.50;;
71080;SDS011;58740;50.672;18.690;2022-08-19T05:03:07;14.90;;;10.80;;
71080;SDS011;58740;50.672;18.690;2022-08-19T05:05:40;18.80;;;12.40;;
71080;SDS011;58740;50.672;18.690;2022-08-19T05:08:13;17.10;;;12.80;;
71080;SDS011;58740;50.672;18.690;2022-08-19T05:10:58;20.80;;;12.60;;
71080;SDS011;58740;50.672;18.690;2022-08-19T05:13:26;16.40;;;12.10;;
71080;SDS011;58740;50.672;18.690;2022-08-19T05:15:56;17.90;;;11.70;;
71080;SDS011;58740;50.672;18.690;2022-08-19T05:18:25;15.70;;;10.70;;
71080;SDS011;58740;50.672;18.690;2022-08-19T05:21:16;18.70;;;12.40;;
71080;SDS011;58740;50.672;18.690;2022-08-19T05:24:04;16.90;;;11.70;;
71080;SDS011;58740;50.672;18.690;2022-08-19T05:26:41;15.00;;;10.30;;
71080;SDS011;58740;50.672;18.690;2022-08-19T05:29:15;20.00;;;11.70;;
71080;SDS011;58740;50.672;18.690;2022-08-19T05:31:47;21.70;;;11.60;;
71080;SDS011;58740;50.672;18.690;2022-08-19T05:34:19;19.10;;;11.70;;
71080;SDS011;58740;50.672;18.690;2022-08-19T05:36:58;16.80;;;11.70;;
71080;SDS011;58740;50.672;18.690;2022-08-19T05:39:29;17.10;;;11.20;;
71080;SDS011;58740;50.672;18.690;2022-08-19T05:42:11;19.30;;;10.50;;
71080;SDS011;58740;50.672;18.690;2022-08-19T05:44:42;19.90;;;11.40;;
71080;SDS011;58740;50.672;18.690;2022-08-19T05:47:13;17.20;;;11.60;;
71080;SDS011;58740;50.672;18.690;2022-08-19T05:49:42;18.50;;;12.20;;
71080;SDS011;58740;50.672;18.690;2022-08-19T05:52:13;17.80;;;11.20;;
71080;SDS011;58740;50.672;18.690;2022-08-19T05:54:46;16.20;;;11.00;;
71080;SDS011;58740;50.672;18.690;2022-08-19T05:57:18;18.60;;;11.80;;
71080;SDS011;58740;50.672;18.690;2022-08-19T05:59:46;17.70;;;11.90;;
71080;SDS011;58740;50.672;18.690;2022-08-19T06:02:19;18.20;;;11.70;;
71080;SDS011;58740;50.672;18.690;2022-08-19T06:04:47;14.60;;;9.80;;
71080;SDS011;58740;50.672;18.690;2022-08-19T06:07:15;15.70;;;11.60;;
71080;SDS011;58740;50.672;18.690;2022-08-19T06:09:44;16.00;;;10.90;;
71080;SDS011;58740;50.672;18.690;2022-08-19T06:12:28;15.10;;;11.50;;
71080;SDS011;58740;50.672;18.690;2022-08-19T06:15:06;18.70;;;12.90;;
71080;SDS011;58740;50.672;18.690;2022-08-19T06:17:38;16.60;;;10.30;;
71080;SDS011;58740;50.672;18.690;2022-08-19T06:20:09;18.60;;;11.20;;
71080;SDS011;58740;50.672;18.690;2022-08-19T06:22:43;15.40;;;10.90;;
71080;SDS011;58740;50.672;18.690;2022-08-19T06:25:13;14.50;;;10.00;;
71080;SDS011;58740;50.672;18.690;2022-08-19T06:27:42;16.00;;;10.50;;
71080;SDS011;58740;50.672;18.690;2022-08-19T06:30:31;15.90;;;10.40;;
71080;SDS011;58740;50.672;18.690;2022-08-19T06:32:59;16.10;;;11.00;;
71080;SDS011;58740;50.672;18.690;2022-08-19T06:35:27;15.40;;;11.00;;
71080;SDS011;58740;50.672;18.690;2022-08-19T06:37:56;17.40;;;10.90;;
71080;SDS011;58740;50.672;18.690;2022-08-19T06:40:24;18.50;;;10.70;;
71080;SDS011;58740;50.672;18.690;2022-08-19T06:42:54;16.70;;;10.20;;
71080;SDS011;58740;50.672;18.690;2022-08-19T06:45:24;13.20;;;8.80;;
71080;SDS011;58740;50.672;18.690;2022-08-19T06:48:05;17.00;;;10.30;;
71080;SDS011;58740;50.672;18.690;2022-08-19T06:50:34;13.80;;;10.10;;
71080;SDS011;58740;50.672;18.690;2022-08-19T06:53:06;13.70;;;9.60;;
71080;SDS011;58740;50.672;18.690;2022-08-19T06:55:33;11.60;;;9.70;;
71080;SDS011;58740;50.672;18.690;2022-08-19T06:58:03;17.50;;;10.20;;
71080;SDS011;58740;50.672;18.690;2022-08-19T07:00:32;16.00;;;11.30;;
71080;SDS011;58740;50.672;18.690;2022-08-19T07:03:01;13.70;;;9.30;;
71080;SDS011;58740;50.672;18.690;2022-08-19T07:05:40;13.90;;;10.30;;
71080;SDS011;58740;50.672;18.690;2022-08-19T07:08:13;12.80;;;9.70;;
71080;SDS011;58740;50.672;18.690;2022-08-19T07:10:45;14.90;;;10.10;;
71080;SDS011;58740;50.672;18.690;2022-08-19T07:13:13;15.20;;;9.60;;
71080;SDS011;58740;50.672;18.690;2022-08-19T07:15:41;16.70;;;9.90;;
71080;SDS011;58740;50.672;18.690;2022-08-19T07:18:09;18.50;;;10.60;;
71080;SDS011;58740;50.672;18.690;2022-08-19T07:20:39;14.40;;;9.40;;
71080;SDS011;58740;50.672;18.690;2022-08-19T07:23:09;16.20;;;9.50;;
71080;SDS011;58740;50.672;18.690;2022-08-19T07:25:43;13.30;;;10.20;;
71080;SDS011;58740;50.672;18.690;2022-08-19T07:28:19;13.60;;;9.80;;
71080;SDS011;58740;50.672;18.690;2022-08-19T07:30:52;13.70;;;8.50;;
71080;SDS011;58740;50.672;18.690;2022-08-19T07:33:19;14.50;;;9.60;;
71080;SDS011;58740;50.672;18.690;2022-08-19T07:35:48;14.10;;;9.80;;
71080;SDS011;58740;50.672;18.690;2022-08-19T07:38:17;16.70;;;9.10;;
71080;SDS011;58740;50.672;18.690;2022-08-19T07:40:45;16.00;;;9.40;;
71080;SDS011;58740;50.672;18.690;2022-08-19T07:43:13;15.70;;;10.20;;
71080;SDS011;58740;50.672;18.690;2022-08-19T07:45:44;12.60;;;7.90;;
71080;SDS011;58740;50.672;18.690;2022-08-19T07:48:12;13.80;;;9.60;;
71080;SDS011;58740;50.672;18.690;2022-08-19T07:50:42;13.90;;;9.60;;
71080;SDS011;58740;50.672;18.690;2022-08-19T07:53:10;12.90;;;9.80;;
71080;SDS011;58740;50.672;18.690;2022-08-19T07:55:39;11.80;;;9.80;;
71080;SDS011;58740;50.672;18.690;2022-08-19T07:58:12;13.30;;;10.10;;
71080;SDS011;58740;50.672;18.690;2022-08-19T08:00:44;13.40;;;9.70;;
71080;SDS011;58740;50.672;18.690;2022-08-19T08:03:15;16.50;;;9.70;;
71080;SDS011;58740;50.672;18.690;2022-08-19T08:05:46;14.50;;;9.50;;
71080;SDS011;58740;50.672;18.690;2022-08-19T08:08:33;13.20;;;9.50;;
71080;SDS011;58740;50.672;18.690;2022-08-19T08:11:20;12.90;;;9.10;;
71080;SDS011;58740;50.672;18.690;2022-08-19T08:13:50;13.80;;;8.10;;
71080;SDS011;58740;50.672;18.690;2022-08-19T08:16:40;11.30;;;8.20;;
71080;SDS011;58740;50.672;18.690;2022-08-19T08:19:14;12.30;;;8.70;;
71080;SDS011;58740;50.672;18.690;2022-08-19T08:21:57;12.30;;;8.50;;
71080;SDS011;58740;50.672;18.690;2022-08-19T08:24:28;13.50;;;7.80;;
71080;SDS011;58740;50.672;18.690;2022-08-19T08:26:59;12.10;;;8.50;;
71080;SDS011;58740;50.672;18.690;2022-08-19T08:29:28;13.30;;;8.10;;
71080;SDS011;58740;50.672;18.690;2022-08-19T08:32:01;11.60;;;8.60;;
71080;SDS011;58740;50.672;18.690;2022-08-19T08:34:41;12.50;;;8.90;;
71080;SDS011;58740;50.672;18.690;2022-08-19T08:37:09;11.90;;;8.80;;
71080;SDS011;58740;50.672;18.690;2022-08-19T08:39:37;13.60;;;8.70;;
71080;SDS011;58740;50.672;18.690;2022-08-19T08:42:11;11.60;;;8.10;;
71080;SDS011;58740;50.672;18.690;2022-08-19T08:44:59;12.50;;;8.70;;
71080;SDS011;58740;50.672;18.690;2022-08-19T08:47:38;20.20;;;12.90;;
71080;SDS011;58740;50.672;18.690;2022-08-19T08:50:17;12.30;;;7.90;;
71080;SDS011;58740;50.672;18.690;2022-08-19T08:52:56;13.00;;;8.10;;
71080;SDS011;58740;50.672;18.690;2022-08-19T08:55:27;12.40;;;7.50;;
71080;SDS011;58740;50.672;18.690;2022-08-19T08:58:09;13.80;;;8.70;;
71080;SDS011;58740;50.672;18.690;2022-08-19T09:00:45;12.90;;;8.00;;
71080;SDS011;58740;50.672;18.690;2022-08-19T09:03:21;12.90;;;8.10;;
71080;SDS011;58740;50.672;18.690;2022-08-19T09:06:02;11.90;;;9.10;;
71080;SDS011;58740;50.672;18.690;2022-08-19T09:09:13;11.20;;;8.70;;
71080;SDS011;58740;50.672;18.690;2022-08-19T09:15:05;13.50;;;7.80;;
71080;SDS011;58740;50.672;18.690;2022-08-19T09:17:36;12.50;;;7.80;;
71080;SDS011;58740;50.672;18.690;2022-08-19T09:20:16;12.50;;;8.00;;
71080;SDS011;58740;50.672;18.690;2022-08-19T09:22:47;12.40;;;8.40;;
71080;SDS011;58740;50.672;18.690;2022-08-19T09:25:19;12.70;;;7.80;;
71080;SDS011;58740;50.672;18.690;2022-08-19T09:27:56;13.30;;;8.10;;
71080;SDS011;58740;50.672;18.690;2022-08-19T09:30:38;15.30;;;8.60;;
71080;SDS011;58740;50.672;18.690;2022-08-19T09:33:08;11.50;;;7.90;;
71080;SDS011;58740;50.672;18.690;2022-08-19T09:35:36;11.00;;;7.40;;
71080;SDS011;58740;50.672;18.690;2022-08-19T09:38:20;13.50;;;7.30;;
71080;SDS011;58740;50.672;18.690;2022-08-19T09:40:48;12.10;;;7.90;;
71080;SDS011;58740;50.672;18.690;2022-08-19T09:43:17;10.50;;;7.50;;
71080;SDS011;58740;50.672;18.690;2022-08-19T09:46:07;13.50;;;7.60;;
71080;SDS011;58740;50.672;18.690;2022-08-19T09:48:37;11.70;;;7.50;;
71080;SDS011;58740;50.672;18.690;2022-08-19T09:51:08;12.10;;;8.10;;
71080;SDS011;58740;50.672;18.690;2022-08-19T09:53:38;17.60;;;12.70;;
71080;SDS011;58740;50.672;18.690;2022-08-19T09:56:06;12.50;;;7.60;;
71080;SDS011;58740;50.672;18.690;2022-08-19T09:58:36;10.40;;;7.70;;
71080;SDS011;58740;50.672;18.690;2022-08-19T10:01:06;16.80;;;9.50;;
71080;SDS011;58740;50.672;18.690;2022-08-19T10:03:36;16.10;;;9.60;;
71080;SDS011;58740;50.672;18.690;2022-08-19T10:06:05;11.90;;;8.00;;
71080;SDS011;58740;50.672;18.690;2022-08-19T10:08:44;11.30;;;7.50;;
71080;SDS011;58740;50.672;18.690;2022-08-19T10:11:18;16.00;;;8.30;;
71080;SDS011;58740;50.672;18.690;2022-08-19T10:14:03;11.00;;;8.50;;
71080;SDS011;58740;50.672;18.690;2022-08-19T10:16:36;13.50;;;8.40;;
71080;SDS011;58740;50.672;18.690;2022-08-19T10:19:06;14.40;;;8.80;;
71080;SDS011;58740;50.672;18.690;2022-08-19T10:21:33;15.60;;;8.50;;
71080;SDS011;58740;50.672;18.690;2022-08-19T10:24:03;11.20;;;7.90;;
71080;SDS011;58740;50.672;18.690;2022-08-19T10:26:35;13.90;;;8.70;;
71080;SDS011;58740;50.672;18.690;2022-08-19T10:29:05;14.90;;;8.70;;
71080;SDS011;58740;50.672;18.690;2022-08-19T10:31:35;12.40;;;8.20;;
71080;SDS011;58740;50.672;18.690;2022-08-19T10:34:24;12.00;;;7.90;;
71080;SDS011;58740;50.672;18.690;2022-08-19T10:36:56;14.80;;;7.80;;
71080;SDS011;58740;50.672;18.690;2022-08-19T10:39:30;13.90;;;8.50;;
71080;SDS011;58740;50.672;18.690;2022-08-19T10:42:10;14.40;;;8.60;;
71080;SDS011;58740;50.672;18.690;2022-08-19T10:44:40;13.00;;;8.80;;
71080;SDS011;58740;50.672;18.690;2022-08-19T10:47:09;15.90;;;9.80;;
71080;SDS011;58740;50.672;18.690;2022-08-19T10:49:55;10.60;;;7.70;;
71080;SDS011;58740;50.672;18.690;2022-08-19T10:52:44;13.90;;;8.70;;
71080;SDS011;58740;50.672;18.690;2022-08-19T10:55:20;18.50;;;8.80;;
71080;SDS011;58740;50.672;18.690;2022-08-19T10:58:13;14.10;;;8.50;;
71080;SDS011;58740;50.672;18.690;2022-08-19T11:00:43;10.90;;;7.70;;
71080;SDS011;58740;50.672;18.690;2022-08-19T11:03:18;11.60;;;7.80;;
71080;SDS011;58740;50.672;18.690;2022-08-19T11:05:46;12.90;;;8.40;;
71080;SDS011;58740;50.672;18.690;2022-08-19T11:08:13;11.80;;;7.50;;
71080;SDS011;58740;50.672;18.690;2022-08-19T11:10:51;12.80;;;8.90;;
71080;SDS011;58740;50.672;18.690;2022-08-19T11:13:22;13.10;;;9.20;;
71080;SDS011;58740;50.672;18.690;2022-08-19T11:16:01;12.00;;;6.90;;
71080;SDS011;58740;50.672;18.690;2022-08-19T11:18:41;20.00;;;10.60;;
71080;SDS011;58740;50.672;18.690;2022-08-19T11:21:17;13.80;;;8.00;;
71080;SDS011;58740;50.672;18.690;2022-08-19T11:23:48;14.80;;;9.00;;
71080;SDS011;58740;50.672;18.690;2022-08-19T11:26:20;13.30;;;8.20;;
71080;SDS011;58740;50.672;18.690;2022-08-19T11:28:49;11.50;;;8.40;;
71080;SDS011;58740;50.672;18.690;2022-08-19T11:31:24;11.60;;;8.00;;
71080;SDS011;58740;50.672;18.690;2022-08-19T11:33:57;14.40;;;9.30;;
71080;SDS011;58740;50.672;18.690;2022-08-19T11:36:27;15.20;;;8.50;;
71080;SDS011;58740;50.672;18.690;2022-08-19T11:38:56;15.30;;;8.80;;
71080;SDS011;58740;50.672;18.690;2022-08-19T11:41:24;11.00;;;8.30;;
71080;SDS011;58740;50.672;18.690;2022-08-19T11:43:53;14.90;;;8.80;;
71080;SDS011;58740;50.672;18.690;2022-08-19T11:46:24;15.00;;;9.10;;
71080;SDS011;58740;50.672;18.690;2022-08-19T11:48:53;14.50;;;8.80;;
71080;SDS011;58740;50.672;18.690;2022-08-19T11:51:23;14.00;;;8.90;;
71080;SDS011;58740;50.672;18.690;2022-08-19T11:53:53;13.80;;;8.70;;
71080;SDS011;58740;50.672;18.690;2022-08-19T11:56:24;14.70;;;8.00;;
71080;SDS011;58740;50.672;18.690;2022-08-19T11:58:54;16.70;;;9.10;;
71080;SDS011;58740;50.672;18.690;2022-08-19T12:01:25;16.90;;;8.70;;
71080;SDS011;58740;50.672;18.690;2022-08-19T12:03:55;10.40;;;7.80;;
71080;SDS011;58740;50.672;18.690;2022-08-19T12:06:28;15.40;;;9.20;;
71080;SDS011;58740;50.672;18.690;2022-08-19T12:09:03;12.40;;;8.20;;
71080;SDS011;58740;50.672;18.690;2022-08-19T12:11:33;12.10;;;9.00;;
71080;SDS011;58740;50.672;18.690;2022-08-19T12:14:01;12.50;;;9.20;;
71080;SDS011;58740;50.672;18.690;2022-08-19T12:16:30;11.70;;;8.90;;
71080;SDS011;58740;50.672;18.690;2022-08-19T12:19:00;11.30;;;8.60;;
71080;SDS011;58740;50.672;18.690;2022-08-19T12:21:34;12.50;;;8.20;;
71080;SDS011;58740;50.672;18.690;2022-08-19T12:24:06;12.30;;;7.80;;
71080;SDS011;58740;50.672;18.690;2022-08-19T12:26:34;13.70;;;8.50;;
71080;SDS011;58740;50.672;18.690;2022-08-19T12:29:21;11.90;;;7.90;;
71080;SDS011;58740;50.672;18.690;2022-08-19T12:31:51;11.30;;;8.20;;
71080;SDS011;58740;50.672;18.690;2022-08-19T12:34:19;14.80;;;7.90;;
71080;SDS011;58740;50.672;18.690;2022-08-19T12:36:48;13.50;;;8.90;;
71080;SDS011;58740;50.672;18.690;2022-08-19T12:39:17;10.30;;;7.30;;
71080;SDS011;58740;50.672;18.690;2022-08-19T12:41:45;13.30;;;7.80;;
71080;SDS011;58740;50.672;18.690;2022-08-19T12:44:22;11.30;;;7.90;;
71080;SDS011;58740;50.672;18.690;2022-08-19T12:46:59;12.60;;;8.40;;
71080;SDS011;58740;50.672;18.690;2022-08-19T12:49:28;12.70;;;8.60;;
71080;SDS011;58740;50.672;18.690;2022-08-19T12:52:16;16.60;;;13.10;;
71080;SDS011;58740;50.672;18.690;2022-08-19T12:54:51;13.60;;;9.20;;
71080;SDS011;58740;50.672;18.690;2022-08-19T12:57:23;17.40;;;8.90;;
71080;SDS011;58740;50.672;18.690;2022-08-19T13:00:14;13.30;;;9.10;;
71080;SDS011;58740;50.672;18.690;2022-08-19T13:02:46;12.80;;;9.30;;
71080;SDS011;58740;50.672;18.690;2022-08-19T13:05:19;13.90;;;9.10;;
71080;SDS011;58740;50.672;18.690;2022-08-19T13:07:52;12.50;;;8.50;;
71080;SDS011;58740;50.672;18.690;2022-08-19T13:10:27;16.50;;;9.50;;
71080;SDS011;58740;50.672;18.690;2022-08-19T13:12:57;14.20;;;8.40;;
71080;SDS011;58740;50.672;18.690;2022-08-19T13:15:27;12.30;;;9.10;;
71080;SDS011;58740;50.672;18.690;2022-08-19T13:17:57;13.60;;;9.30;;
71080;SDS011;58740;50.672;18.690;2022-08-19T13:20:25;11.60;;;8.30;;
71080;SDS011;58740;50.672;18.690;2022-08-19T13:22:54;12.60;;;8.50;;
71080;SDS011;58740;50.672;18.690;2022-08-19T13:25:22;16.60;;;8.60;;
71080;SDS011;58740;50.672;18.690;2022-08-19T13:27:50;12.50;;;7.40;;
71080;SDS011;58740;50.672;18.690;2022-08-19T13:30:19;14.80;;;7.90;;
71080;SDS011;58740;50.672;18.690;2022-08-19T13:33:08;14.60;;;7.00;;
71080;SDS011;58740;50.672;18.690;2022-08-19T13:35:46;10.50;;;7.20;;
71080;SDS011;58740;50.672;18.690;2022-08-19T13:38:18;13.20;;;8.10;;
71080;SDS011;58740;50.672;18.690;2022-08-19T13:40:51;16.50;;;7.70;;
71080;SDS011;58740;50.672;18.690;2022-08-19T13:43:23;14.30;;;7.90;;
71080;SDS011;58740;50.672;18.690;2022-08-19T13:45:54;13.20;;;8.10;;
71080;SDS011;58740;50.672;18.690;2022-08-19T13:48:25;13.80;;;9.20;;
71080;SDS011;58740;50.672;18.690;2022-08-19T13:50:54;16.70;;;10.30;;
71080;SDS011;58740;50.672;18.690;2022-08-19T13:53:22;14.20;;;8.00;;
71080;SDS011;58740;50.672;18.690;2022-08-19T13:55:50;13.40;;;8.50;;
71080;SDS011;58740;50.672;18.690;2022-08-19T13:58:21;15.10;;;8.50;;
71080;SDS011;58740;50.672;18.690;2022-08-19T14:00:50;13.80;;;8.40;;
71080;SDS011;58740;50.672;18.690;2022-08-19T14:03:18;15.80;;;7.60;;
71080;SDS011;58740;50.672;18.690;2022-08-19T14:05:46;13.00;;;7.70;;
71080;SDS011;58740;50.672;18.690;2022-08-19T14:08:14;11.40;;;7.50;;
71080;SDS011;58740;50.672;18.690;2022-08-19T14:10:42;12.90;;;8.20;;
71080;SDS011;58740;50.672;18.690;2022-08-19T14:13:18;11.20;;;7.80;;
71080;SDS011;58740;50.672;18.690;2022-08-19T14:15:48;16.30;;;8.60;;
71080;SDS011;58740;50.672;18.690;2022-08-19T14:18:17;12.60;;;8.50;;
71080;SDS011;58740;50.672;18.690;2022-08-19T14:20:46;14.80;;;7.90;;
71080;SDS011;58740;50.672;18.690;2022-08-19T14:23:13;13.50;;;8.40;;
71080;SDS011;58740;50.672;18.690;2022-08-19T14:25:42;12.30;;;8.70;;
71080;SDS011;58740;50.672;18.690;2022-08-19T14:28:10;14.10;;;8.30;;
71080;SDS011;58740;50.672;18.690;2022-08-19T14:30:38;13.70;;;8.40;;
71080;SDS011;58740;50.672;18.690;2022-08-19T14:33:06;14.20;;;7.90;;
71080;SDS011;58740;50.672;18.690;2022-08-19T14:35:36;11.50;;;8.00;;
71080;SDS011;58740;50.672;18.690;2022-08-19T14:38:05;12.80;;;7.40;;
71080;SDS011;58740;50.672;18.690;2022-08-19T14:40:34;13.70;;;8.30;;
71080;SDS011;58740;50.672;18.690;2022-08-19T14:43:03;12.90;;;8.00;;
71080;SDS011;58740;50.672;18.690;2022-08-19T14:45:36;14.60;;;7.30;;
71080;SDS011;58740;50.672;18.690;2022-08-19T14:48:08;12.20;;;7.20;;
71080;SDS011;58740;50.672;18.690;2022-08-19T14:50:46;14.40;;;7.60;;